Auburn, NE

2:38 PM CDT on July 02, 2015 (GMT -0500)
The Butler's backyard | | Change Station
CLOSE
Current Station
Personal Weather Station
Location: Auburn, NE
Elevation: 1086 ft
Nearby Weather Stations

Elev 1086 ft 40.38 °N, 95.85 °W | Updated 15 minutes ago

Rain
Rain
69.3 °F
Feels Like 69.3 °F
N
4.2
Wind Variable Wind from ESE

Today
High -- | Low -- °F
--% Chance of Precip.
Yesterday
High -- | Low -- °F
Precip. -- in
5:57 AM 8:57 PM
Full, 99% visible
Pressure 29.95 in
Visibility 3.0 miles
Clouds Scattered Clouds 400 ft
Mostly Cloudy 3200 ft
Overcast 5500 ft
Dew Point 68 °F
Humidity 94%
Rainfall 0.23 in
Snow Depth Not available.
UV 3 out of 12
Pollen 3.50 out of 12
Air Quality Not available.
Flu Activity Not available.
METAR KAFK 021915Z AUTO 09008KT 3SM -RA SCT004 BKN032 OVC055 20/19 A2995 RMK AO2 T01950190

More Conditions Fewer Conditions

Pressure 29.95 in
Visibility 3.0 miles
Clouds Scattered Clouds 400 ft
Mostly Cloudy 3200 ft
Overcast 5500 ft
Dew Point 68 °F
Humidity 94%
Rainfall 0.23 in
Snow Depth Not available.
UV 3 out of 12
Pollen 3.50 out of 12
Air Quality Not available.
Flu Activity Not available.
METAR KAFK 021915Z AUTO 09008KT 3SM -RA SCT004 BKN032 OVC055 20/19 A2995 RMK AO2 T01950190

More Conditions Fewer Conditions

10-Day Weather Forecast

×

Almanac

Astronomy

Jul. 02, 2015 Rise Set
Actual Time
Civil Twilight
Nautical Twilight
Astronomical Twilight
Moon
Length of Visible Light
Length of Day
Tomorrow will be .
, % of the Moon is Illuminated

Today's Extremes

State Highs State Lows

Community

WunderPhotos

Upload Photos

1,834,523 photos uploaded!

WunderBlogs® & News

Nearby

Air Quality

  Air Quality AQ Index Pollutant
Not available.

Snow Depth

Station Depth Elevation

Earthquake Activity

City Distance Mag. Time & Date
Minimum magnitude displayed is 2.5.

Coastal Water Temperatures

Place Temperature

Stations

Nearby Weather Stations

Station Location Temp. Windchill Dew Point Humidity Wind Precip. Elev Updated Type